sensor_id;sensor_type;location;lat;lon;timestamp;P1;durP1;ratioP1;P2;durP2;ratioP2
69951;SDS011;60406;48.408;13.392;2023-04-03T00:03:02;9.90;;;5.85;;
69951;SDS011;60406;48.408;13.392;2023-04-03T00:08:03;6.00;;;5.22;;
69951;SDS011;60406;48.408;13.392;2023-04-03T00:13:04;9.60;;;5.38;;
69951;SDS011;60406;48.408;13.392;2023-04-03T00:18:06;9.57;;;6.70;;
69951;SDS011;60406;48.408;13.392;2023-04-03T00:23:07;8.13;;;5.65;;
69951;SDS011;60406;48.408;13.392;2023-04-03T00:28:08;8.50;;;6.32;;
69951;SDS011;60406;48.408;13.392;2023-04-03T00:33:11;8.23;;;6.50;;
69951;SDS011;60406;48.408;13.392;2023-04-03T00:38:13;12.25;;;6.63;;
69951;SDS011;60406;48.408;13.392;2023-04-03T00:43:15;6.10;;;5.22;;
69951;SDS011;60406;48.408;13.392;2023-04-03T00:48:25;5.47;;;4.95;;
69951;SDS011;60406;48.408;13.392;2023-04-03T00:54:09;5.85;;;4.80;;
69951;SDS011;60406;48.408;13.392;2023-04-03T00:58:59;5.13;;;4.63;;
69951;SDS011;60406;48.408;13.392;2023-04-03T01:04:03;6.07;;;5.00;;
69951;SDS011;60406;48.408;13.392;2023-04-03T01:09:04;6.25;;;4.30;;
69951;SDS011;60406;48.408;13.392;2023-04-03T01:14:06;5.80;;;4.80;;
69951;SDS011;60406;48.408;13.392;2023-04-03T01:19:07;5.32;;;3.80;;
69951;SDS011;60406;48.408;13.392;2023-04-03T01:29:33;5.25;;;3.72;;
69951;SDS011;60406;48.408;13.392;2023-04-03T01:34:34;6.45;;;4.13;;
69951;SDS011;60406;48.408;13.392;2023-04-03T01:39:35;6.65;;;4.32;;
69951;SDS011;60406;48.408;13.392;2023-04-03T01:44:36;6.30;;;4.10;;
69951;SDS011;60406;48.408;13.392;2023-04-03T01:49:37;5.40;;;3.80;;
69951;SDS011;60406;48.408;13.392;2023-04-03T01:54:38;4.20;;;3.70;;
69951;SDS011;60406;48.408;13.392;2023-04-03T01:59:39;4.80;;;4.13;;
69951;SDS011;60406;48.408;13.392;2023-04-03T02:04:40;4.68;;;3.90;;
69951;SDS011;60406;48.408;13.392;2023-04-03T02:09:41;4.65;;;3.65;;
69951;SDS011;60406;48.408;13.392;2023-04-03T02:14:42;5.03;;;4.30;;
69951;SDS011;60406;48.408;13.392;2023-04-03T02:19:43;4.43;;;3.17;;
69951;SDS011;60406;48.408;13.392;2023-04-03T02:24:43;5.47;;;4.00;;
69951;SDS011;60406;48.408;13.392;2023-04-03T02:29:44;4.82;;;3.20;;
69951;SDS011;60406;48.408;13.392;2023-04-03T02:34:45;6.13;;;3.80;;
69951;SDS011;60406;48.408;13.392;2023-04-03T02:39:46;5.95;;;3.97;;
69951;SDS011;60406;48.408;13.392;2023-04-03T02:44:47;5.30;;;3.65;;
69951;SDS011;60406;48.408;13.392;2023-04-03T02:49:48;4.68;;;3.95;;
69951;SDS011;60406;48.408;13.392;2023-04-03T02:54:49;4.15;;;3.75;;
69951;SDS011;60406;48.408;13.392;2023-04-03T02:59:49;5.03;;;4.05;;
69951;SDS011;60406;48.408;13.392;2023-04-03T03:04:50;5.15;;;3.45;;
69951;SDS011;60406;48.408;13.392;2023-04-03T03:09:51;6.97;;;4.28;;
69951;SDS011;60406;48.408;13.392;2023-04-03T03:14:52;4.57;;;3.70;;
69951;SDS011;60406;48.408;13.392;2023-04-03T03:19:53;5.15;;;4.35;;
69951;SDS011;60406;48.408;13.392;2023-04-03T03:24:54;5.75;;;4.43;;
69951;SDS011;60406;48.408;13.392;2023-04-03T03:29:55;6.30;;;4.95;;
69951;SDS011;60406;48.408;13.392;2023-04-03T03:34:55;5.35;;;3.97;;
69951;SDS011;60406;48.408;13.392;2023-04-03T03:39:56;6.18;;;4.65;;
69951;SDS011;60406;48.408;13.392;2023-04-03T03:44:57;4.80;;;3.78;;
69951;SDS011;60406;48.408;13.392;2023-04-03T03:49:58;5.25;;;4.63;;
69951;SDS011;60406;48.408;13.392;2023-04-03T03:54:59;6.38;;;4.88;;
69951;SDS011;60406;48.408;13.392;2023-04-03T04:00:00;6.78;;;4.53;;
69951;SDS011;60406;48.408;13.392;2023-04-03T04:05:01;5.40;;;4.50;;
69951;SDS011;60406;48.408;13.392;2023-04-03T04:10:02;4.65;;;3.97;;
69951;SDS011;60406;48.408;13.392;2023-04-03T04:15:03;9.02;;;4.60;;
69951;SDS011;60406;48.408;13.392;2023-04-03T04:20:04;5.10;;;4.55;;
69951;SDS011;60406;48.408;13.392;2023-04-03T04:25:05;4.97;;;4.22;;
69951;SDS011;60406;48.408;13.392;2023-04-03T04:30:06;6.47;;;5.00;;
69951;SDS011;60406;48.408;13.392;2023-04-03T04:35:07;7.20;;;5.15;;
69951;SDS011;60406;48.408;13.392;2023-04-03T04:40:08;7.78;;;5.45;;
69951;SDS011;60406;48.408;13.392;2023-04-03T04:45:10;5.55;;;5.03;;
69951;SDS011;60406;48.408;13.392;2023-04-03T04:50:11;6.20;;;4.93;;
69951;SDS011;60406;48.408;13.392;2023-04-03T04:55:12;5.55;;;5.05;;
69951;SDS011;60406;48.408;13.392;2023-04-03T05:00:13;7.72;;;5.32;;
69951;SDS011;60406;48.408;13.392;2023-04-03T05:05:14;6.65;;;5.22;;
69951;SDS011;60406;48.408;13.392;2023-04-03T05:10:15;6.72;;;5.25;;
69951;SDS011;60406;48.408;13.392;2023-04-03T05:15:16;6.93;;;6.22;;
69951;SDS011;60406;48.408;13.392;2023-04-03T05:20:17;5.82;;;4.88;;
69951;SDS011;60406;48.408;13.392;2023-04-03T05:25:18;7.03;;;6.15;;
69951;SDS011;60406;48.408;13.392;2023-04-03T05:30:19;6.45;;;5.25;;
69951;SDS011;60406;48.408;13.392;2023-04-03T05:35:19;21.08;;;13.85;;
69951;SDS011;60406;48.408;13.392;2023-04-03T05:40:20;7.40;;;5.53;;
69951;SDS011;60406;48.408;13.392;2023-04-03T05:45:21;6.82;;;5.30;;
69951;SDS011;60406;48.408;13.392;2023-04-03T05:50:22;9.38;;;5.72;;
69951;SDS011;60406;48.408;13.392;2023-04-03T05:55:23;6.05;;;5.32;;
69951;SDS011;60406;48.408;13.392;2023-04-03T06:00:24;10.02;;;5.05;;
69951;SDS011;60406;48.408;13.392;2023-04-03T06:05:25;8.02;;;5.55;;
69951;SDS011;60406;48.408;13.392;2023-04-03T06:10:25;7.68;;;4.50;;
69951;SDS011;60406;48.408;13.392;2023-04-03T06:15:26;6.45;;;5.80;;
69951;SDS011;60406;48.408;13.392;2023-04-03T06:20:27;4.47;;;3.83;;
69951;SDS011;60406;48.408;13.392;2023-04-03T06:25:28;6.07;;;4.85;;
69951;SDS011;60406;48.408;13.392;2023-04-03T06:30:29;8.32;;;5.35;;
69951;SDS011;60406;48.408;13.392;2023-04-03T06:35:30;7.60;;;4.68;;
69951;SDS011;60406;48.408;13.392;2023-04-03T06:40:31;4.70;;;4.18;;
69951;SDS011;60406;48.408;13.392;2023-04-03T06:45:32;6.03;;;4.80;;
69951;SDS011;60406;48.408;13.392;2023-04-03T06:50:32;4.65;;;3.45;;
69951;SDS011;60406;48.408;13.392;2023-04-03T06:55:33;8.68;;;4.18;;
69951;SDS011;60406;48.408;13.392;2023-04-03T07:00:34;4.65;;;4.20;;
69951;SDS011;60406;48.408;13.392;2023-04-03T07:05:35;7.78;;;4.07;;
69951;SDS011;60406;48.408;13.392;2023-04-03T07:10:37;5.78;;;3.47;;
69951;SDS011;60406;48.408;13.392;2023-04-03T07:15:38;4.57;;;2.88;;
69951;SDS011;60406;48.408;13.392;2023-04-03T07:20:39;5.25;;;3.45;;
69951;SDS011;60406;48.408;13.392;2023-04-03T07:25:49;4.50;;;3.80;;
69951;SDS011;60406;48.408;13.392;2023-04-03T07:30:52;6.25;;;4.00;;
69951;SDS011;60406;48.408;13.392;2023-04-03T07:35:55;6.18;;;4.05;;
69951;SDS011;60406;48.408;13.392;2023-04-03T07:40:56;6.60;;;4.65;;
69951;SDS011;60406;48.408;13.392;2023-04-03T07:45:56;5.40;;;4.15;;
69951;SDS011;60406;48.408;13.392;2023-04-03T07:51:01;7.03;;;4.63;;
69951;SDS011;60406;48.408;13.392;2023-04-03T07:56:02;5.40;;;4.65;;
69951;SDS011;60406;48.408;13.392;2023-04-03T08:01:03;6.47;;;4.57;;
69951;SDS011;60406;48.408;13.392;2023-04-03T08:06:05;11.77;;;7.68;;
69951;SDS011;60406;48.408;13.392;2023-04-03T08:11:07;8.27;;;4.43;;
69951;SDS011;60406;48.408;13.392;2023-04-03T08:16:09;5.97;;;4.57;;
69951;SDS011;60406;48.408;13.392;2023-04-03T08:21:13;3.50;;;2.30;;
69951;SDS011;60406;48.408;13.392;2023-04-03T08:26:15;3.42;;;2.25;;
69951;SDS011;60406;48.408;13.392;2023-04-03T08:31:17;5.35;;;2.10;;
69951;SDS011;60406;48.408;13.392;2023-04-03T08:36:23;3.58;;;1.95;;
69951;SDS011;60406;48.408;13.392;2023-04-03T08:41:35;3.13;;;1.40;;
69951;SDS011;60406;48.408;13.392;2023-04-03T08:46:42;8.82;;;3.00;;
69951;SDS011;60406;48.408;13.392;2023-04-03T08:51:49;2.67;;;1.95;;
69951;SDS011;60406;48.408;13.392;2023-04-03T08:56:51;3.15;;;1.75;;
69951;SDS011;60406;48.408;13.392;2023-04-03T09:01:52;4.10;;;1.67;;
69951;SDS011;60406;48.408;13.392;2023-04-03T09:06:54;4.72;;;2.10;;
69951;SDS011;60406;48.408;13.392;2023-04-03T09:17:15;5.13;;;3.00;;
69951;SDS011;60406;48.408;13.392;2023-04-03T09:22:27;4.78;;;2.13;;
69951;SDS011;60406;48.408;13.392;2023-04-03T09:27:29;5.35;;;1.77;;
69951;SDS011;60406;48.408;13.392;2023-04-03T09:32:31;3.65;;;1.50;;
69951;SDS011;60406;48.408;13.392;2023-04-03T09:42:39;2.20;;;1.73;;
69951;SDS011;60406;48.408;13.392;2023-04-03T09:47:41;1.92;;;1.08;;
69951;SDS011;60406;48.408;13.392;2023-04-03T09:52:42;4.28;;;2.55;;
69951;SDS011;60406;48.408;13.392;2023-04-03T09:57:47;3.45;;;1.60;;
69951;SDS011;60406;48.408;13.392;2023-04-03T10:02:53;2.38;;;1.35;;
69951;SDS011;60406;48.408;13.392;2023-04-03T10:13:18;4.15;;;1.52;;
69951;SDS011;60406;48.408;13.392;2023-04-03T10:39:12;2.00;;;1.17;;
69951;SDS011;60406;48.408;13.392;2023-04-03T10:44:26;3.88;;;1.65;;
69951;SDS011;60406;48.408;13.392;2023-04-03T10:55:02;4.97;;;1.40;;
69951;SDS011;60406;48.408;13.392;2023-04-03T11:00:16;3.63;;;1.70;;
69951;SDS011;60406;48.408;13.392;2023-04-03T11:05:29;2.50;;;1.20;;
69951;SDS011;60406;48.408;13.392;2023-04-03T11:10:43;4.82;;;2.00;;
69951;SDS011;60406;48.408;13.392;2023-04-03T11:15:45;2.08;;;1.23;;
69951;SDS011;60406;48.408;13.392;2023-04-03T11:20:57;2.75;;;1.60;;
69951;SDS011;60406;48.408;13.392;2023-04-03T11:26:07;3.72;;;1.83;;
69951;SDS011;60406;48.408;13.392;2023-04-03T11:31:32;2.47;;;1.50;;
69951;SDS011;60406;48.408;13.392;2023-04-03T11:36:44;2.33;;;1.33;;
69951;SDS011;60406;48.408;13.392;2023-04-03T11:41:47;2.35;;;1.50;;
69951;SDS011;60406;48.408;13.392;2023-04-03T11:46:49;4.30;;;1.63;;
69951;SDS011;60406;48.408;13.392;2023-04-03T11:51:51;1.77;;;1.20;;
69951;SDS011;60406;48.408;13.392;2023-04-03T11:56:52;2.70;;;1.80;;
69951;SDS011;60406;48.408;13.392;2023-04-03T12:01:55;6.13;;;2.60;;
69951;SDS011;60406;48.408;13.392;2023-04-03T12:07:01;2.53;;;1.38;;
69951;SDS011;60406;48.408;13.392;2023-04-03T12:17:55;5.38;;;2.00;;
69951;SDS011;60406;48.408;13.392;2023-04-03T12:28:37;7.75;;;2.63;;
69951;SDS011;60406;48.408;13.392;2023-04-03T12:33:58;4.13;;;2.17;;
69951;SDS011;60406;48.408;13.392;2023-04-03T12:39:21;3.35;;;1.75;;
69951;SDS011;60406;48.408;13.392;2023-04-03T12:49:45;3.55;;;2.10;;
69951;SDS011;60406;48.408;13.392;2023-04-03T12:54:47;3.97;;;2.22;;
69951;SDS011;60406;48.408;13.392;2023-04-03T12:59:48;3.53;;;1.98;;
69951;SDS011;60406;48.408;13.392;2023-04-03T13:04:50;4.55;;;2.20;;
69951;SDS011;60406;48.408;13.392;2023-04-03T13:09:55;2.92;;;2.10;;
69951;SDS011;60406;48.408;13.392;2023-04-03T13:14:59;3.67;;;2.17;;
69951;SDS011;60406;48.408;13.392;2023-04-03T13:20:11;6.82;;;4.15;;
69951;SDS011;60406;48.408;13.392;2023-04-03T13:25:32;1.85;;;1.45;;
69951;SDS011;60406;48.408;13.392;2023-04-03T13:30:36;3.63;;;1.88;;
69951;SDS011;60406;48.408;13.392;2023-04-03T13:35:38;3.78;;;2.30;;
69951;SDS011;60406;48.408;13.392;2023-04-03T13:41:02;7.88;;;2.42;;
69951;SDS011;60406;48.408;13.392;2023-04-03T13:46:21;7.03;;;2.95;;
69951;SDS011;60406;48.408;13.392;2023-04-03T13:51:26;5.35;;;2.42;;
69951;SDS011;60406;48.408;13.392;2023-04-03T13:56:37;2.97;;;2.07;;
69951;SDS011;60406;48.408;13.392;2023-04-03T14:01:43;4.45;;;2.53;;
69951;SDS011;60406;48.408;13.392;2023-04-03T14:06:55;2.58;;;2.00;;
69951;SDS011;60406;48.408;13.392;2023-04-03T14:12:00;7.15;;;2.63;;
69951;SDS011;60406;48.408;13.392;2023-04-03T14:17:10;5.55;;;2.20;;
69951;SDS011;60406;48.408;13.392;2023-04-03T14:22:16;9.23;;;6.82;;
69951;SDS011;60406;48.408;13.392;2023-04-03T14:27:19;5.03;;;4.28;;
69951;SDS011;60406;48.408;13.392;2023-04-03T14:32:22;7.88;;;2.65;;
69951;SDS011;60406;48.408;13.392;2023-04-03T14:37:25;4.28;;;2.55;;
69951;SDS011;60406;48.408;13.392;2023-04-03T14:42:30;2.78;;;2.30;;
69951;SDS011;60406;48.408;13.392;2023-04-03T14:47:33;4.53;;;2.33;;
69951;SDS011;60406;48.408;13.392;2023-04-03T14:52:40;4.32;;;2.47;;
69951;SDS011;60406;48.408;13.392;2023-04-03T14:57:41;3.22;;;2.25;;
69951;SDS011;60406;48.408;13.392;2023-04-03T15:02:42;2.47;;;1.77;;
69951;SDS011;60406;48.408;13.392;2023-04-03T15:07:44;3.05;;;2.47;;
69951;SDS011;60406;48.408;13.392;2023-04-03T15:12:49;3.05;;;2.22;;
69951;SDS011;60406;48.408;13.392;2023-04-03T15:17:51;4.15;;;2.10;;
69951;SDS011;60406;48.408;13.392;2023-04-03T15:22:53;3.87;;;2.70;;
69951;SDS011;60406;48.408;13.392;2023-04-03T15:27:55;14.27;;;8.73;;
69951;SDS011;60406;48.408;13.392;2023-04-03T15:32:56;4.53;;;2.65;;
69951;SDS011;60406;48.408;13.392;2023-04-03T15:37:57;3.08;;;2.35;;
69951;SDS011;60406;48.408;13.392;2023-04-03T15:42:58;3.13;;;2.13;;
69951;SDS011;60406;48.408;13.392;2023-04-03T15:47:59;3.67;;;2.30;;
69951;SDS011;60406;48.408;13.392;2023-04-03T15:53:00;5.70;;;3.40;;
69951;SDS011;60406;48.408;13.392;2023-04-03T15:58:01;4.15;;;2.72;;
69951;SDS011;60406;48.408;13.392;2023-04-03T16:03:04;4.22;;;2.42;;
69951;SDS011;60406;48.408;13.392;2023-04-03T16:08:06;3.42;;;2.17;;
69951;SDS011;60406;48.408;13.392;2023-04-03T16:13:07;4.03;;;2.58;;
69951;SDS011;60406;48.408;13.392;2023-04-03T16:18:08;3.90;;;2.80;;
69951;SDS011;60406;48.408;13.392;2023-04-03T16:23:09;4.22;;;2.30;;
69951;SDS011;60406;48.408;13.392;2023-04-03T16:28:12;3.22;;;2.38;;
69951;SDS011;60406;48.408;13.392;2023-04-03T16:33:13;3.95;;;2.63;;
69951;SDS011;60406;48.408;13.392;2023-04-03T16:38:14;3.53;;;2.60;;
69951;SDS011;60406;48.408;13.392;2023-04-03T16:43:15;8.60;;;3.13;;
69951;SDS011;60406;48.408;13.392;2023-04-03T16:48:16;5.43;;;2.75;;
69951;SDS011;60406;48.408;13.392;2023-04-03T16:53:17;5.30;;;3.22;;
69951;SDS011;60406;48.408;13.392;2023-04-03T16:58:18;6.03;;;3.10;;
69951;SDS011;60406;48.408;13.392;2023-04-03T17:03:19;5.32;;;3.95;;
69951;SDS011;60406;48.408;13.392;2023-04-03T17:08:20;10.48;;;6.30;;
69951;SDS011;60406;48.408;13.392;2023-04-03T17:13:21;5.30;;;3.35;;
69951;SDS011;60406;48.408;13.392;2023-04-03T17:18:22;4.32;;;2.55;;
69951;SDS011;60406;48.408;13.392;2023-04-03T17:23:23;3.97;;;2.85;;
69951;SDS011;60406;48.408;13.392;2023-04-03T17:28:25;4.53;;;3.00;;
69951;SDS011;60406;48.408;13.392;2023-04-03T17:33:26;5.63;;;2.80;;
69951;SDS011;60406;48.408;13.392;2023-04-03T17:38:27;5.28;;;3.17;;
69951;SDS011;60406;48.408;13.392;2023-04-03T17:43:28;4.70;;;3.53;;
69951;SDS011;60406;48.408;13.392;2023-04-03T17:48:30;6.28;;;3.42;;
69951;SDS011;60406;48.408;13.392;2023-04-03T17:53:31;6.32;;;3.53;;
69951;SDS011;60406;48.408;13.392;2023-04-03T17:58:32;6.45;;;3.70;;
69951;SDS011;60406;48.408;13.392;2023-04-03T18:03:33;6.03;;;3.25;;
69951;SDS011;60406;48.408;13.392;2023-04-03T18:08:37;4.10;;;2.85;;
69951;SDS011;60406;48.408;13.392;2023-04-03T18:13:41;4.05;;;2.60;;
69951;SDS011;60406;48.408;13.392;2023-04-03T18:18:41;6.05;;;3.05;;
69951;SDS011;60406;48.408;13.392;2023-04-03T18:23:52;4.13;;;3.10;;
69951;SDS011;60406;48.408;13.392;2023-04-03T18:28:59;8.85;;;3.22;;
69951;SDS011;60406;48.408;13.392;2023-04-03T18:34:00;6.38;;;2.75;;
69951;SDS011;60406;48.408;13.392;2023-04-03T18:39:01;7.13;;;2.97;;
69951;SDS011;60406;48.408;13.392;2023-04-03T18:44:03;5.00;;;3.08;;
69951;SDS011;60406;48.408;13.392;2023-04-03T18:49:06;6.45;;;2.72;;
69951;SDS011;60406;48.408;13.392;2023-04-03T18:54:07;6.13;;;3.28;;
69951;SDS011;60406;48.408;13.392;2023-04-03T18:59:08;7.38;;;3.45;;
69951;SDS011;60406;48.408;13.392;2023-04-03T19:04:09;5.95;;;3.40;;
69951;SDS011;60406;48.408;13.392;2023-04-03T19:09:10;4.00;;;3.30;;
69951;SDS011;60406;48.408;13.392;2023-04-03T19:14:11;6.35;;;3.42;;
69951;SDS011;60406;48.408;13.392;2023-04-03T19:19:12;6.70;;;4.53;;
69951;SDS011;60406;48.408;13.392;2023-04-03T19:24:13;5.93;;;3.50;;
69951;SDS011;60406;48.408;13.392;2023-04-03T19:29:14;7.22;;;4.70;;
69951;SDS011;60406;48.408;13.392;2023-04-03T19:34:15;7.88;;;3.78;;
69951;SDS011;60406;48.408;13.392;2023-04-03T19:39:15;11.13;;;5.03;;
69951;SDS011;60406;48.408;13.392;2023-04-03T19:44:16;7.15;;;3.67;;
69951;SDS011;60406;48.408;13.392;2023-04-03T19:49:18;3.90;;;3.10;;
69951;SDS011;60406;48.408;13.392;2023-04-03T19:54:19;7.93;;;3.55;;
69951;SDS011;60406;48.408;13.392;2023-04-03T19:59:20;6.93;;;3.78;;
69951;SDS011;60406;48.408;13.392;2023-04-03T20:04:21;6.68;;;3.38;;
69951;SDS011;60406;48.408;13.392;2023-04-03T20:09:22;4.60;;;2.88;;
69951;SDS011;60406;48.408;13.392;2023-04-03T20:14:23;5.13;;;3.20;;
69951;SDS011;60406;48.408;13.392;2023-04-03T20:19:25;5.22;;;3.08;;
69951;SDS011;60406;48.408;13.392;2023-04-03T20:24:26;5.82;;;2.72;;
69951;SDS011;60406;48.408;13.392;2023-04-03T20:29:27;6.13;;;2.95;;
69951;SDS011;60406;48.408;13.392;2023-04-03T20:34:28;6.20;;;2.72;;
69951;SDS011;60406;48.408;13.392;2023-04-03T20:39:29;5.10;;;2.90;;
69951;SDS011;60406;48.408;13.392;2023-04-03T20:44:30;5.88;;;2.65;;
69951;SDS011;60406;48.408;13.392;2023-04-03T20:49:31;8.18;;;3.05;;
69951;SDS011;60406;48.408;13.392;2023-04-03T20:54:31;7.72;;;3.03;;
69951;SDS011;60406;48.408;13.392;2023-04-03T20:59:32;11.00;;;3.00;;
69951;SDS011;60406;48.408;13.392;2023-04-03T21:04:39;3.50;;;2.20;;
69951;SDS011;60406;48.408;13.392;2023-04-03T21:20:46;4.20;;;2.33;;
69951;SDS011;60406;48.408;13.392;2023-04-03T21:25:47;5.53;;;2.85;;
69951;SDS011;60406;48.408;13.392;2023-04-03T21:30:48;6.07;;;2.50;;
69951;SDS011;60406;48.408;13.392;2023-04-03T21:35:50;19.67;;;3.17;;
69951;SDS011;60406;48.408;13.392;2023-04-03T21:40:50;5.10;;;2.72;;
69951;SDS011;60406;48.408;13.392;2023-04-03T21:45:52;4.97;;;2.60;;
69951;SDS011;60406;48.408;13.392;2023-04-03T21:51:02;6.45;;;2.55;;
69951;SDS011;60406;48.408;13.392;2023-04-03T21:56:04;5.78;;;2.67;;
69951;SDS011;60406;48.408;13.392;2023-04-03T22:01:11;7.90;;;3.17;;
69951;SDS011;60406;48.408;13.392;2023-04-03T22:06:14;6.03;;;2.80;;
69951;SDS011;60406;48.408;13.392;2023-04-03T22:11:15;6.35;;;3.05;;
69951;SDS011;60406;48.408;13.392;2023-04-03T22:16:16;3.63;;;2.28;;
69951;SDS011;60406;48.408;13.392;2023-04-03T22:21:17;11.70;;;3.13;;
69951;SDS011;60406;48.408;13.392;2023-04-03T22:26:18;7.47;;;2.63;;
69951;SDS011;60406;48.408;13.392;2023-04-03T22:31:19;7.10;;;2.50;;
69951;SDS011;60406;48.408;13.392;2023-04-03T22:36:20;6.78;;;2.72;;
69951;SDS011;60406;48.408;13.392;2023-04-03T22:41:21;8.02;;;2.67;;
69951;SDS011;60406;48.408;13.392;2023-04-03T22:46:22;3.47;;;2.47;;
69951;SDS011;60406;48.408;13.392;2023-04-03T22:51:22;7.68;;;2.50;;
69951;SDS011;60406;48.408;13.392;2023-04-03T22:56:23;7.93;;;2.70;;
69951;SDS011;60406;48.408;13.392;2023-04-03T23:01:24;7.00;;;3.10;;
69951;SDS011;60406;48.408;13.392;2023-04-03T23:06:25;8.38;;;2.67;;
69951;SDS011;60406;48.408;13.392;2023-04-03T23:11:26;4.75;;;3.10;;
69951;SDS011;60406;48.408;13.392;2023-04-03T23:16:27;4.43;;;2.85;;
69951;SDS011;60406;48.408;13.392;2023-04-03T23:21:28;8.55;;;2.53;;
69951;SDS011;60406;48.408;13.392;2023-04-03T23:26:28;5.85;;;2.50;;
69951;SDS011;60406;48.408;13.392;2023-04-03T23:31:29;5.30;;;2.50;;
69951;SDS011;60406;48.408;13.392;2023-04-03T23:36:30;4.10;;;2.30;;
69951;SDS011;60406;48.408;13.392;2023-04-03T23:41:31;7.97;;;2.65;;
69951;SDS011;60406;48.408;13.392;2023-04-03T23:46:32;4.45;;;2.88;;
69951;SDS011;60406;48.408;13.392;2023-04-03T23:51:33;5.38;;;2.53;;
69951;SDS011;60406;48.408;13.392;2023-04-03T23:56:34;6.00;;;2.65;;
